Historique des stations

Station météo de Mainvilliers

Altitude de la station : 298 m







Données météorologiques pour le 21/10/2021
Date
Heure
Températures Humidité Point de rosée Vitesse
du vent
Direction Rafales Windchill Pression Pluviométrie
Cumul
Date
Heure
Températures Humidité Point de rosée Vitesse
du vent
Direction Rafales Windchill Pression Pluviométrie
Cumul
21/10/2021 14:1312.7 °C87 %10.6 °C34 km/hSSO80 km/h8.3 1011 hPa0.2 mm
21/10/2021 14:0012.9 °C86 %10.6 °C16 km/hSSO80 km/h10.6 1011 hPa0.2 mm
21/10/2021 13:4312.9 °C85 %10.6 °C14 km/hS80 km/h11.1 1011 hPa0.2 mm
21/10/2021 13:2813.5 °C80 %10.0 °C18 km/hSSO80 km/h11.1 1012 hPa0.2 mm
21/10/2021 13:1313.9 °C76 %10.0 °C27 km/hS80 km/h10.6 1012 hPa0.2 mm
21/10/2021 13:0013.8 °C76 %9.4 °C18 km/hSSO80 km/h11.7 1012 hPa0.2 mm
21/10/2021 12:4313.7 °C75 %9.4 °C14 km/hSSE80 km/h12.2 1012 hPa0.2 mm
21/10/2021 12:2813.6 °C75 %9.4 °C24 km/hSSO80 km/h10.6 1012 hPa0.2 mm
21/10/2021 12:1313.7 °C75 %9.4 °C23 km/hSSO80 km/h11.1 1012 hPa0.2 mm
21/10/2021 11:5913.4 °C75 %8.9 °C16 km/hENE80 km/h11.1 1012 hPa0.2 mm
21/10/2021 11:4413.3 °C76 %9.4 °C11 km/hESE80 km/h12.2 1012 hPa0.2 mm
21/10/2021 11:2912.9 °C77 %8.9 °C11 km/hS80 km/h11.7 1012 hPa0.2 mm
21/10/2021 11:1412.3 °C79 %8.9 °C16 km/hS80 km/h10.0 1012 hPa0.2 mm
21/10/2021 10:5912.1 °C79 %8.3 °C19 km/hSSO80 km/h9.4 1012 hPa0.2 mm
21/10/2021 10:4411.5 °C81 %8.3 °C16 km/hS80 km/h9.4 1012 hPa0.2 mm
21/10/2021 10:2911.1 °C82 %8.3 °C18 km/hSSO80 km/h8.3 1012 hPa0.2 mm
21/10/2021 10:1410.8 °C83 %8.3 °C21 km/hSSO80 km/h7.8 1012 hPa0.2 mm
21/10/2021 09:5910.6 °C84 %7.8 °C11 km/hSO80 km/h8.9 1012 hPa0.2 mm
21/10/2021 09:4410.2 °C85 %7.8 °C11 km/hS80 km/h8.3 1012 hPa0.2 mm
21/10/2021 09:299.9 °C86 %7.8 °C11 km/hSO80 km/h8.3 1012 hPa0.2 mm
21/10/2021 09:149.6 °C87 %7.8 °C18 km/hSSO80 km/h6.1 1011 hPa0.2 mm
21/10/2021 08:599.5 °C87 %7.2 °C6 km/hSSO80 km/h8.3 1011 hPa0.2 mm
21/10/2021 08:449.4 °C87 %7.2 °C8 km/hSO80 km/h8.3 1011 hPa0.2 mm
21/10/2021 08:299.4 °C87 %7.2 °C5 km/hOSO80 km/h8.9 1011 hPa0.2 mm
21/10/2021 08:149.6 °C86 %7.2 °C6 km/hSE80 km/h8.3 1010 hPa0.2 mm
21/10/2021 07:599.8 °C85 %7.2 °C6 km/hSO80 km/h8.9 1010 hPa0.2 mm
21/10/2021 07:449.9 °C85 %7.8 °C5 km/hOSO80 km/h9.4 1010 hPa0.2 mm
21/10/2021 07:299.7 °C86 %7.8 °C13 km/hOSO80 km/h7.8 1010 hPa0.2 mm
21/10/2021 07:149.7 °C86 %7.2 °C13 km/hS80 km/h7.2 1010 hPa0.2 mm
21/10/2021 06:599.8 °C86 %7.8 °C11 km/hSSO80 km/h8.3 1010 hPa0.2 mm
21/10/2021 06:4410.2 °C83 %7.2 °C11 km/hSO80 km/h8.3 1010 hPa0.2 mm
21/10/2021 06:2910.1 °C82 %7.2 °C14 km/hSO80 km/h7.8 1009 hPa0.2 mm
21/10/2021 06:1410.4 °C80 %7.2 °C18 km/hSO80 km/h7.8 1009 hPa0.2 mm
21/10/2021 05:5910.6 °C80 %7.2 °C31 km/hOSO80 km/h6.1 1008 hPa0.2 mm
21/10/2021 05:4410.8 °C81 %7.8 °C13 km/hSO80 km/h9.4 1008 hPa0.2 mm
21/10/2021 05:2911.1 °C80 %7.8 °C18 km/hSO80 km/h8.3 1007 hPa0.2 mm
21/10/2021 05:1411.4 °C78 %7.8 °C11 km/hSO80 km/h10.0 1006 hPa0.2 mm
21/10/2021 04:5911.6 °C77 %7.8 °C23 km/hSSO80 km/h8.3 1006 hPa0.2 mm
21/10/2021 04:4411.4 °C78 %7.8 °C24 km/hSO80 km/h8.3 1005 hPa0.2 mm
21/10/2021 04:2911.2 °C80 %7.8 °C27 km/hSO80 km/h7.2 1004 hPa0.2 mm
21/10/2021 04:1411.6 °C78 %7.8 °C19 km/hSSO80 km/h8.9 1004 hPa0.2 mm
21/10/2021 03:5911.7 °C76 %7.8 °C23 km/hSO80 km/h8.3 1003 hPa0.2 mm
21/10/2021 03:4412.1 °C74 %7.8 °C21 km/hSSO80 km/h9.4 1002 hPa0.2 mm
21/10/2021 03:2912.3 °C72 %7.2 °C53 km/hSO80 km/h6.7 1002 hPa0.2 mm
21/10/2021 03:1412.7 °C72 %7.8 °C32 km/hSO80 km/h8.3 1001 hPa0.2 mm
21/10/2021 02:5912.8 °C72 %7.8 °C40 km/hNNO80 km/h7.8 1000 hPa0.2 mm
21/10/2021 02:4412.9 °C73 %8.3 °C37 km/hSSO80 km/h8.3 1000 hPa0.2 mm
21/10/2021 02:2912.9 °C74 %8.3 °C56 km/hSSO80 km/h7.2 999 hPa0.2 mm
21/10/2021 02:1412.9 °C75 %8.9 °C23 km/hO80 km/h9.4 998 hPa0.2 mm
21/10/2021 01:5913.0 °C76 %8.9 °C24 km/hS74 km/h9.4 998 hPa0.2 mm
21/10/2021 01:4413.1 °C75 %8.9 °C23 km/hSO74 km/h10.6 998 hPa0.2 mm
21/10/2021 01:2913.2 °C75 %8.9 °C39 km/hSSO74 km/h8.9 998 hPa0.2 mm
21/10/2021 01:1413.0 °C76 %8.9 °C19 km/hSSO69 km/h10.0 998 hPa-
21/10/2021 00:5913.1 °C75 %8.9 °C14 km/hSE69 km/h11.7 998 hPa-
21/10/2021 00:4412.9 °C76 %8.9 °C23 km/hSSO61 km/h9.4 999 hPa-
21/10/2021 00:2912.9 °C79 %9.4 °C29 km/hS61 km/h8.9 999 hPa-
21/10/2021 00:1413.1 °C79 %9.4 °C31 km/hS60 km/h9.4 999 hPa-


Minima :

Température : 9.4 °C
Humidité : 72 %
Point de rosée : 7.2 °C
Vent moyen : 5 km/h
Windchill : 6.1
Pression atm. : 998 hPa
Maxima :

Température : 13.9 °C
Humidité : 87 %
Point de rosée : 10.6 °C
Vent moyen : 56 km/h
Windchill : 12.2
Pression atm. : 1012 hPa
Rafales max : 80 km/h
Cumul de pluie sur 24H : 0.2 mm

Mainvilliers est une commune du département Eure-et-Loir (28).
La station météorologique du réseau de l'association la plus proche de Mainvilliers est celle de Chaudon
Site du propriétaire de la station : http://meteo28300.fr/



Icône Facebook Association Météo Centre Icône Twitter Association Météo Centre Icône Chaîne Youtube Association Météo Centre Icône contact Association Météo Centre Icône Insta Association Météo Centre